Dolores, Colorado
Current Conditions -  °F | °C
As of 7:53 PM on Friday 19 Dec 2014 (Local Time) from KCEZ Reporting Station
Clear Clear  
Wind Chill: 28°   Ceiling: Unl
Heat Index: 28°   Visibility: 10mi
Dew Point: 26°   Wind: 3mph
Humidity: 92%   Direction: 20°NNE
Pressure: 30.21"   Gusts: NA
Location:  37.47°N, 108.5°W
Report Text: KCEZ 200253Z AUTO 02003KT 10SM CLR M02/M03 A3021 RMK AO2 SLP254 T10221033 51009
Loading
Personal Weather Stations






























Interactive Weather Map New forecast layout! Learn more

10-Day Weather Forecast

Advertisements
Track Severe Weather on mobile